Time;durP1;ratioP1;P1;durP2;ratioP2;P2;SDS_P1;SDS_P2;PMS_P1;PMS_P2;Temp;Humidity;BMP_temperature;BMP_pressure;BME280_temperature;BME280_humidity;BME280_pressure;Samples;Min_cycle;Max_cycle;Signal;HPM_P1;HPM_P2
2021/04/09 00:02:01;;;;;;;24.30;12.70;;;;;;;1.43;68.32;100625.80;1715802;83;21307;-77
2021/04/09 00:05:06;;;;;;;24.27;12.37;;;;;;;1.48;67.94;100635.77;1715791;83;21173;-77
2021/04/09 00:08:14;;;;;;;23.07;12.78;;;;;;;1.53;67.70;100630.90;1714364;83;21189;-77
2021/04/09 00:11:20;;;;;;;24.90;12.98;;;;;;;1.57;67.54;100639.64;1715827;83;21319;-77
2021/04/09 00:14:25;;;;;;;22.87;10.93;;;;;;;1.56;67.47;100635.72;1715774;83;21272;-77
2021/04/09 00:17:31;;;;;;;26.25;11.88;;;;;;;1.55;67.34;100640.21;1715828;83;21268;-77
2021/04/09 00:20:37;;;;;;;21.00;10.75;;;;;;;1.54;67.18;100639.84;1715733;83;21280;-77
2021/04/09 00:23:42;;;;;;;24.92;12.20;;;;;;;1.54;67.07;100642.55;1714911;83;21910;-77
2021/04/09 00:26:51;;;;;;;20.37;11.05;;;;;;;1.50;67.02;100641.89;1715801;83;21276;-77
2021/04/09 00:29:57;;;;;;;22.53;11.33;;;;;;;1.48;66.89;100644.34;1716111;83;21233;-77
2021/04/09 00:33:03;;;;;;;23.80;11.75;;;;;;;1.46;66.71;100637.72;1715827;83;21162;-77
2021/04/09 00:36:09;;;;;;;21.12;11.03;;;;;;;1.45;66.71;100641.36;1714337;83;21210;-77
2021/04/09 00:39:15;;;;;;;27.20;12.15;;;;;;;1.41;66.80;100637.65;1715787;83;21319;-77
2021/04/09 00:42:27;;;;;;;21.50;11.35;;;;;;;1.36;66.87;100640.67;1715705;83;21276;-77
2021/04/09 00:45:33;;;;;;;28.60;12.00;;;;;;;1.33;66.94;100637.36;1715752;83;21324;-77
2021/04/09 00:48:39;;;;;;;23.02;12.00;;;;;;;1.28;67.00;100627.77;1715781;83;21185;-77
2021/04/09 00:51:44;;;;;;;24.35;11.78;;;;;;;1.27;67.00;100639.98;1715786;83;21201;-77
2021/04/09 00:54:50;;;;;;;22.58;11.83;;;;;;;1.22;67.12;100640.80;1715789;83;21863;-77
2021/04/09 00:57:58;;;;;;;27.15;11.65;;;;;;;1.20;67.25;100654.38;1715807;83;21856;-77
2021/04/09 01:01:04;;;;;;;22.35;11.73;;;;;;;1.16;67.33;100661.44;1715720;83;21752;-77
2021/04/09 01:04:09;;;;;;;30.43;13.13;;;;;;;1.11;67.37;100652.34;1715777;83;21800;-77
2021/04/09 01:07:15;;;;;;;23.00;10.98;;;;;;;1.09;67.48;100659.67;1715671;83;21257;-77
2021/04/09 01:10:24;;;;;;;26.42;13.90;;;;;;;1.08;67.57;100668.70;1715751;83;21876;-77
2021/04/09 01:13:30;;;;;;;29.87;11.50;;;;;;;1.07;67.64;100662.94;1716018;83;21272;-77
2021/04/09 01:17:01;;;;;;;17.82;10.25;;;;;;;1.05;67.72;100659.51;1715880;83;21319;-77
2021/04/09 01:20:32;;;;;;;24.80;10.55;;;;;;;1.02;67.84;100661.06;1715899;83;21312;-77
2021/04/09 01:24:20;;;;;;;23.23;10.80;;;;;;;0.97;68.04;100663.21;1713851;83;21244;-77
2021/04/09 01:27:59;;;;;;;19.55;9.95;;;;;;;0.96;68.30;100674.47;1687443;85;21287;-77
2021/04/09 01:31:12;;;;;;;14.90;8.88;;;;;;;0.96;68.50;100673.61;1687437;85;21699;-76
2021/04/09 01:34:19;;;;;;;14.47;9.05;;;;;;;0.94;68.65;100680.47;1687477;85;21271;-77
2021/04/09 01:37:26;;;;;;;17.60;9.55;;;;;;;0.87;68.82;100695.80;1687442;85;21316;-77
2021/04/09 01:40:42;;;;;;;13.13;8.53;;;;;;;0.76;69.03;100689.31;1687413;85;21315;-76
2021/04/09 01:43:49;;;;;;;15.55;9.25;;;;;;;0.66;69.52;100694.95;1687468;85;21275;-77
2021/04/09 01:46:57;;;;;;;17.65;9.33;;;;;;;0.56;69.90;100697.00;1687441;85;21204;-76
2021/04/09 01:50:07;;;;;;;22.65;9.63;;;;;;;0.50;70.21;100698.28;1687477;85;21732;-77
2021/04/09 01:53:11;;;;;;;16.48;9.83;;;;;;;0.45;70.41;100707.14;1687447;85;21307;-76
2021/04/09 01:56:18;;;;;;;17.48;10.30;;;;;;;0.40;70.62;100701.20;1686111;84;21160;-76
2021/04/09 01:59:24;;;;;;;17.87;10.38;;;;;;;0.36;70.84;100715.34;1687497;85;21897;-77
2021/04/09 02:02:29;;;;;;;21.60;11.55;;;;;;;0.36;71.01;100723.90;1687506;85;21855;-77
2021/04/09 02:05:36;;;;;;;18.32;10.00;;;;;;;0.38;71.08;100723.34;1687491;85;21283;-77
2021/04/09 02:08:42;;;;;;;22.25;10.68;;;;;;;0.43;71.13;100737.34;1687430;85;21176;-76
2021/04/09 02:11:50;;;;;;;17.02;8.88;;;;;;;0.46;70.99;100746.06;1669779;85;21760;-76
2021/04/09 02:14:56;;;;;;;15.28;9.68;;;;;;;0.47;70.84;100748.27;1687405;85;21311;-76
2021/04/09 02:18:01;;;;;;;16.07;9.63;;;;;;;0.46;70.73;100753.27;1687474;85;21160;-77
2021/04/09 02:21:07;;;;;;;21.02;11.35;;;;;;;0.45;70.70;100756.94;1687379;85;21200;-76
2021/04/09 02:24:17;;;;;;;18.95;10.13;;;;;;;0.45;70.71;100761.83;1687353;85;21770;-77
2021/04/09 02:27:23;;;;;;;21.37;10.68;;;;;;;0.48;70.67;100770.20;1715897;83;21721;-77
2021/04/09 02:30:30;;;;;;;18.20;11.00;;;;;;;0.51;70.60;100769.50;1715892;83;21320;-77
2021/04/09 02:33:34;;;;;;;21.82;10.23;;;;;;;0.53;70.40;100777.49;1715889;83;21165;-77
2021/04/09 02:36:41;;;;;;;20.52;10.08;;;;;;;0.50;70.25;100769.61;1715861;83;21264;-76
2021/04/09 02:39:48;;;;;;;15.98;9.95;;;;;;;0.46;70.22;100775.66;1715791;83;21838;-77
2021/04/09 02:42:56;;;;;;;21.65;9.55;;;;;;;0.39;70.32;100775.70;1715753;83;21158;-76
2021/04/09 02:46:05;;;;;;;18.87;9.30;;;;;;;0.33;70.44;100775.22;1715885;83;21150;-77
2021/04/09 02:49:24;;;;;;;19.05;10.40;;;;;;;0.27;70.64;100775.14;1715859;83;21272;-77
2021/04/09 02:52:30;;;;;;;19.80;10.30;;;;;;;0.20;70.86;100780.06;1715729;83;21157;-76
2021/04/09 02:55:39;;;;;;;18.15;10.53;;;;;;;0.17;71.17;100769.49;1715617;83;21304;-76
2021/04/09 02:58:44;;;;;;;17.60;10.32;;;;;;;0.16;71.40;100770.95;1715856;83;21308;-76
2021/04/09 03:01:53;;;;;;;21.25;9.88;;;;;;;0.16;71.56;100770.95;1715819;83;21299;-76
2021/04/09 03:04:58;;;;;;;22.58;12.15;;;;;;;0.19;71.61;100769.41;1715862;83;21169;-77
2021/04/09 03:08:03;;;;;;;26.50;12.82;;;;;;;0.22;71.66;100768.71;1715854;83;21319;-77
2021/04/09 03:11:10;;;;;;;28.38;11.55;;;;;;;0.30;71.67;100768.71;1703043;83;21276;-76
2021/04/09 03:14:15;;;;;;;20.43;11.83;;;;;;;0.36;71.57;100776.37;1715854;83;21812;-76
2021/04/09 03:17:26;;;;;;;19.10;9.85;;;;;;;0.43;71.36;100784.45;1715774;83;21197;-77
2021/04/09 03:20:33;;;;;;;20.72;10.55;;;;;;;0.47;71.01;100781.91;1715775;83;21304;-77
2021/04/09 03:23:38;;;;;;;19.25;10.03;;;;;;;0.49;70.70;100788.08;1697343;83;21273;-77
2021/04/09 03:26:43;;;;;;;23.85;10.82;;;;;;;0.49;70.58;100786.73;1693937;84;21213;-77
2021/04/09 03:29:51;;;;;;;18.30;9.85;;;;;;;0.51;70.48;100792.86;1695117;84;21810;-76
2021/04/09 03:32:55;;;;;;;16.82;9.35;;;;;;;0.54;70.47;100806.13;1696513;83;21243;-76
2021/04/09 03:36:01;;;;;;;18.37;9.25;;;;;;;0.59;70.43;100812.56;1695186;83;21789;-76
2021/04/09 03:39:06;;;;;;;17.35;9.30;;;;;;;0.68;70.25;100804.74;1695007;84;21150;-77
2021/04/09 03:42:12;;;;;;;17.50;8.55;;;;;;;0.80;69.92;100811.62;1700863;83;21256;-77
2021/04/09 03:45:18;;;;;;;14.23;8.00;;;;;;;0.91;69.58;100819.87;1700056;83;21257;-77
2021/04/09 03:48:23;;;;;;;21.15;9.80;;;;;;;1.02;69.29;100820.00;1695135;84;21165;-77
2021/04/09 03:51:30;;;;;;;20.02;9.83;;;;;;;1.16;69.05;100818.59;1695127;84;21809;-77
2021/04/09 03:54:36;;;;;;;19.48;9.75;;;;;;;1.31;68.84;100830.16;1696702;84;21327;-77
2021/04/09 03:57:41;;;;;;;15.13;8.98;;;;;;;1.43;68.50;100829.81;1696544;84;21276;-77
2021/04/09 04:00:47;;;;;;;17.70;9.28;;;;;;;1.54;68.02;100842.06;1696509;84;21173;-77
2021/04/09 04:03:58;;;;;;;18.17;9.40;;;;;;;1.67;67.64;100845.64;1702320;83;21223;-77
2021/04/09 04:07:03;;;;;;;21.73;10.13;;;;;;;1.77;67.30;100853.47;1703704;84;21197;-77
2021/04/09 04:10:12;;;;;;;21.60;11.55;;;;;;;1.86;67.12;100853.31;1678743;85;21311;-77
2021/04/09 04:13:18;;;;;;;18.57;9.25;;;;;;;1.99;67.03;100864.98;1713777;83;21130;-77
2021/04/09 04:16:23;;;;;;;19.23;8.98;;;;;;;2.14;66.95;100868.42;1723064;83;21316;-77
2021/04/09 04:19:29;;;;;;;15.48;9.60;;;;;;;2.26;67.19;100872.11;1725600;83;21141;-77
2021/04/09 04:22:34;;;;;;;19.77;9.88;;;;;;;2.39;67.15;100875.62;1714011;83;21774;-77
2021/04/09 04:25:39;;;;;;;23.42;10.55;;;;;;;2.55;66.89;100883.51;1715567;83;21322;-77
2021/04/09 04:28:45;;;;;;;19.27;9.60;;;;;;;2.70;66.39;100887.79;1717608;82;21296;-77
2021/04/09 04:31:51;;;;;;;20.40;10.23;;;;;;;2.86;66.03;100887.52;1715037;82;21312;-77
2021/04/09 04:34:57;;;;;;;21.10;11.10;;;;;;;2.99;65.64;100899.16;1726352;83;21156;-77
2021/04/09 04:38:05;;;;;;;25.90;12.95;;;;;;;3.17;65.58;100893.37;1721173;83;21291;-77
2021/04/09 04:41:11;;;;;;;19.12;9.58;;;;;;;3.38;65.23;100897.64;1717535;83;21865;-77
2021/04/09 04:44:17;;;;;;;32.30;12.33;;;;;;;3.57;64.97;100897.96;1715233;82;21266;-77
2021/04/09 04:47:24;;;;;;;19.23;10.45;;;;;;;3.73;64.71;100900.38;1724423;83;21551;-77
2021/04/09 04:50:30;;;;;;;27.20;11.35;;;;;;;3.92;64.61;100901.16;1716550;83;21726;-77
2021/04/09 04:53:35;;;;;;;29.42;13.03;;;;;;;4.07;64.61;100899.96;1706268;82;21301;-77
2021/04/09 04:56:34;;;;;;;24.57;11.63;;;;;;;4.21;64.28;100901.59;1719250;83;21197;-77
2021/04/09 04:59:39;;;;;;;26.15;10.23;;;;;;;4.35;64.37;100899.50;1711728;83;21304;-77
2021/04/09 05:02:45;;;;;;;22.45;10.50;;;;;;;4.49;64.08;100901.61;1713952;83;21248;-77
2021/04/09 05:05:51;;;;;;;21.75;9.60;;;;;;;4.54;63.79;100906.16;1717573;83;21705;-77
2021/04/09 05:08:57;;;;;;;19.07;10.93;;;;;;;4.60;64.23;100909.23;1716397;83;22199;-76
2021/04/09 05:12:04;;;;;;;16.20;10.30;;;;;;;4.68;64.45;100910.47;1717588;83;21287;-76
2021/04/09 05:15:09;;;;;;;19.27;11.43;;;;;;;4.80;64.54;100913.06;1718040;81;21196;-77
2021/04/09 05:18:18;;;;;;;21.40;10.93;;;;;;;4.90;64.11;100910.96;1714724;82;21317;-77
2021/04/09 05:21:28;;;;;;;18.80;10.25;;;;;;;4.90;64.52;100903.69;1693557;82;22859;-78
2021/04/09 05:24:35;;;;;;;20.20;11.48;;;;;;;4.97;64.89;100909.45;1685017;83;21295;-77
2021/04/09 05:27:44;;;;;;;28.73;12.58;;;;;;;5.04;64.68;100906.62;1686179;82;21432;-78
2021/04/09 05:30:51;;;;;;;20.72;10.63;;;;;;;5.15;64.85;100900.30;1665099;83;22268;-77
2021/04/09 05:33:58;;;;;;;21.25;10.72;;;;;;;5.22;64.98;100904.22;1677167;83;21279;-77
2021/04/09 05:37:03;;;;;;;17.98;11.08;;;;;;;5.30;64.58;100903.09;1680346;83;21229;-77
2021/04/09 05:40:09;;;;;;;22.50;11.25;;;;;;;5.37;64.57;100894.83;1681571;84;21283;-77
2021/04/09 05:43:15;;;;;;;14.87;10.25;;;;;;;5.46;64.33;100901.30;1673478;83;21298;-77
2021/04/09 05:46:22;;;;;;;16.93;10.23;;;;;;;5.59;63.82;100898.78;1645831;87;21855;-78
2021/04/09 05:49:29;;;;;;;14.58;9.58;;;;;;;5.75;63.34;100906.50;1659673;84;21318;-78
2021/04/09 05:52:36;;;;;;;20.32;10.63;;;;;;;5.85;63.44;100911.50;1664686;84;21718;-77
2021/04/09 05:55:40;;;;;;;21.82;11.78;;;;;;;5.96;63.41;100915.18;1660089;84;21270;-78
2021/04/09 05:58:46;;;;;;;18.37;9.83;;;;;;;6.11;63.07;100912.48;1678246;83;21319;-78
2021/04/09 06:01:53;;;;;;;16.25;10.23;;;;;;;6.27;62.36;100908.82;1679948;85;21703;-78
2021/04/09 06:04:58;;;;;;;18.80;11.25;;;;;;;6.35;61.91;100916.28;1680372;85;21302;-78
2021/04/09 06:08:06;;;;;;;22.85;11.35;;;;;;;6.37;62.05;100910.23;1680613;83;21367;-78
2021/04/09 06:11:10;;;;;;;20.37;10.82;;;;;;;6.44;61.97;100917.34;1678496;83;21288;-77
2021/04/09 06:14:15;;;;;;;21.05;9.60;;;;;;;6.54;61.46;100916.88;1677985;85;21189;-78
2021/04/09 06:17:20;;;;;;;19.62;10.03;;;;;;;6.66;60.98;100917.16;1676503;85;21186;-77
2021/04/09 06:20:26;;;;;;;22.42;11.30;;;;;;;6.75;60.84;100920.92;1679024;85;21619;-77
2021/04/09 06:23:31;;;;;;;20.85;10.98;;;;;;;6.80;60.76;100916.80;1676235;85;21311;-77
2021/04/09 06:26:37;;;;;;;21.12;10.25;;;;;;;6.88;60.22;100925.13;1674291;83;21397;-77
2021/04/09 06:29:44;;;;;;;17.48;9.75;;;;;;;6.95;60.34;100923.22;1642934;85;21362;-78
2021/04/09 06:32:51;;;;;;;16.35;8.68;;;;;;;7.05;59.73;100917.30;1681214;83;21205;-76
2021/04/09 06:35:56;;;;;;;16.52;8.50;;;;;;;7.22;58.91;100923.94;1681266;83;21339;-76
2021/04/09 06:39:02;;;;;;;13.32;8.88;;;;;;;7.30;59.41;100920.03;1681769;85;21188;-77
2021/04/09 06:42:08;;;;;;;12.80;8.10;;;;;;;7.35;58.06;100928.13;1679249;85;21208;-76
2021/04/09 06:45:15;;;;;;;14.35;7.45;;;;;;;7.47;58.27;100922.04;1680693;85;21226;-76
2021/04/09 06:48:22;;;;;;;13.53;6.65;;;;;;;7.57;56.57;100922.91;1717050;83;21321;-76
2021/04/09 06:51:28;;;;;;;9.78;7.17;;;;;;;7.65;53.00;100923.56;1717496;83;21342;-76
2021/04/09 06:54:34;;;;;;;12.50;7.33;;;;;;;7.66;54.89;100923.41;1717018;82;21300;-77
2021/04/09 06:57:44;;;;;;;13.43;6.97;;;;;;;7.72;53.33;100930.18;1713308;82;21369;-77
2021/04/09 07:00:50;;;;;;;10.08;5.85;;;;;;;7.79;53.74;100939.48;1713060;82;21329;-76
2021/04/09 07:03:55;;;;;;;15.15;8.05;;;;;;;7.82;50.17;100936.48;1713279;82;21295;-76
2021/04/09 07:07:02;;;;;;;13.30;7.62;;;;;;;7.85;50.04;100941.63;1710232;82;21341;-77
2021/04/09 07:10:08;;;;;;;19.35;8.78;;;;;;;7.89;50.89;100926.72;1714069;82;21331;-77
2021/04/09 07:13:17;;;;;;;10.70;7.17;;;;;;;7.88;51.54;100933.68;1715011;82;21347;-77
2021/04/09 07:16:23;;;;;;;16.95;8.15;;;;;;;7.93;50.48;100932.23;1682941;84;21412;-77
2021/04/09 07:19:41;;;;;;;11.38;6.85;;;;;;;7.96;49.43;100930.25;1679863;83;21312;-77
2021/04/09 07:22:59;;;;;;;12.47;7.70;;;;;;;7.98;49.25;100938.61;1676907;85;21963;-78
2021/04/09 07:26:05;;;;;;;13.08;7.72;;;;;;;8.01;48.61;100941.57;1675194;85;21319;-77
2021/04/09 07:29:10;;;;;;;11.68;7.40;;;;;;;8.03;49.07;100943.63;1680969;84;21370;-78
2021/04/09 07:32:20;;;;;;;15.80;7.85;;;;;;;8.11;49.50;100950.59;1679564;85;21335;-78
2021/04/09 07:35:25;;;;;;;13.65;7.62;;;;;;;8.22;48.72;100942.75;1657309;85;21294;-77
2021/04/09 07:38:40;;;;;;;16.00;8.03;;;;;;;8.33;47.63;100946.19;1684264;85;21881;-78
2021/04/09 07:41:46;;;;;;;10.85;6.53;;;;;;;8.42;47.66;100960.34;1680982;83;21263;-77
2021/04/09 07:44:53;;;;;;;14.18;7.33;;;;;;;8.39;46.45;100963.86;1685885;83;21748;-78
2021/04/09 07:48:14;;;;;;;13.30;6.42;;;;;;;8.39;45.23;100959.26;1652827;83;21358;-78
2021/04/09 07:51:28;;;;;;;11.80;6.55;;;;;;;8.38;43.97;100959.41;1683471;85;21289;-78
2021/04/09 07:54:34;;;;;;;12.80;6.95;;;;;;;8.49;43.65;100954.29;1686529;85;21287;-78
2021/04/09 07:57:39;;;;;;;9.98;5.25;;;;;;;8.59;43.97;100951.89;1681917;85;21181;-78
2021/04/09 08:00:45;;;;;;;8.80;5.20;;;;;;;8.62;42.58;100962.51;1683804;84;21279;-79
2021/04/09 08:03:53;;;;;;;11.05;4.50;;;;;;;8.66;43.07;100958.98;1656178;85;21322;-79
2021/04/09 08:06:59;;;;;;;15.75;5.22;;;;;;;8.71;39.48;100956.67;1685080;83;21297;-79
2021/04/09 08:10:06;;;;;;;9.28;5.37;;;;;;;8.73;39.89;100956.00;1683351;85;21322;-78
2021/04/09 08:13:11;;;;;;;10.60;5.42;;;;;;;8.70;39.42;100964.47;1684918;85;21278;-79
2021/04/09 08:16:40;;;;;;;10.30;5.00;;;;;;;8.70;39.69;100968.56;1679963;85;21216;-79
2021/04/09 08:19:48;;;;;;;8.93;5.45;;;;;;;8.70;38.43;100965.36;1684185;83;21208;-79
2021/04/09 08:22:55;;;;;;;10.28;6.05;;;;;;;8.74;39.84;100956.36;1685506;83;21256;-80
2021/04/09 08:26:03;;;;;;;10.53;5.75;;;;;;;8.81;39.45;100969.77;1659404;86;21293;-79
2021/04/09 08:29:08;;;;;;;13.28;7.90;;;;;;;8.93;39.93;100965.83;1684751;85;21201;-78
2021/04/09 08:32:18;;;;;;;8.83;6.08;;;;;;;9.00;39.50;100957.06;1681682;84;21351;-78
2021/04/09 08:35:25;;;;;;;11.20;6.15;;;;;;;9.08;39.88;100958.51;1690548;80;59776;-82
2021/04/09 08:38:29;;;;;;;10.93;5.95;;;;;;;9.11;38.42;100960.44;1712685;81;21322;-83
2021/04/09 08:41:37;;;;;;;10.98;6.00;;;;;;;9.20;38.94;100960.05;1772142;79;21834;-80
2021/04/09 08:44:43;;;;;;;9.15;4.83;;;;;;;9.25;37.98;100956.86;1766520;79;21315;-81
2021/04/09 08:47:50;;;;;;;8.78;5.80;;;;;;;9.18;38.79;100960.20;1770338;79;21316;-80
2021/04/09 08:50:56;;;;;;;8.45;5.50;;;;;;;9.19;38.81;100959.70;1769248;79;21215;-81
2021/04/09 08:54:01;;;;;;;11.33;4.85;;;;;;;9.34;37.62;100968.23;1712498;81;21296;-81
2021/04/09 08:57:08;;;;;;;10.78;6.15;;;;;;;9.56;36.69;100964.23;1717161;82;21298;-81
2021/04/09 09:00:18;;;;;;;7.92;5.22;;;;;;;9.68;35.82;100970.66;1722546;81;21821;-81
2021/04/09 09:03:37;;;;;;;16.45;6.58;;;;;;;9.71;35.69;100969.00;1681804;83;21725;-81
2021/04/09 09:06:50;;;;;;;10.05;6.58;;;;;;;9.81;37.70;100973.02;1718749;81;21338;-81
2021/04/09 09:09:56;;;;;;;9.00;6.10;;;;;;;9.95;36.18;100972.48;1695747;83;21275;-81
2021/04/09 09:13:18;;;;;;;9.10;6.08;;;;;;;9.90;35.01;100980.80;1750203;79;21327;-81
2021/04/09 09:16:25;;;;;;;12.03;6.47;;;;;;;9.84;35.50;100979.55;1771626;79;21157;-80
2021/04/09 09:19:48;;;;;;;9.58;6.35;;;;;;;9.84;36.53;100993.22;1772519;79;21354;-80
2021/04/09 09:22:55;;;;;;;15.08;6.45;;;;;;;9.90;36.17;100985.75;1774623;79;21154;-80
2021/04/09 09:25:48;;;;;;;13.62;6.28;;;;;;;10.00;36.13;100991.14;1773499;78;21937;-80
2021/04/09 09:28:35;;;;;;;13.30;4.97;;;;;;;10.08;35.12;100978.07;1774443;79;21205;-80
2021/04/09 09:31:40;;;;;;;12.00;5.95;;;;;;;10.20;36.33;100974.91;1775737;79;21280;-81
2021/04/09 09:34:48;;;;;;;8.83;5.67;;;;;;;10.30;36.09;100973.48;1750247;79;21166;-81
2021/04/09 09:37:55;;;;;;;10.70;5.87;;;;;;;10.35;35.55;100982.11;1747588;79;21316;-81
2021/04/09 09:41:00;;;;;;;11.28;6.65;;;;;;;10.36;34.47;100981.59;1779079;80;21248;-81
2021/04/09 09:44:07;;;;;;;7.83;5.30;;;;;;;10.42;34.41;100983.69;1778528;79;21157;-80
2021/04/09 09:47:13;;;;;;;10.88;5.28;;;;;;;10.58;34.06;100980.20;1780231;79;21331;-81
2021/04/09 09:50:25;;;;;;;11.55;6.08;;;;;;;10.68;33.24;100975.48;1780539;79;21304;-81
2021/04/09 09:53:31;;;;;;;16.77;6.10;;;;;;;10.62;34.25;100970.14;1780162;79;21834;-82
2021/04/09 09:56:36;;;;;;;9.80;5.90;;;;;;;10.62;34.50;100976.98;1780238;79;21185;-81
2021/04/09 09:59:41;;;;;;;9.95;6.75;;;;;;;10.59;34.84;100975.10;1775559;79;21162;-82
2021/04/09 10:02:49;;;;;;;10.80;6.15;;;;;;;10.47;34.06;100972.61;1735287;79;21805;-82
2021/04/09 10:06:04;;;;;;;10.32;6.05;;;;;;;10.25;33.89;100977.20;1762772;79;21311;-81
2021/04/09 10:09:11;;;;;;;7.50;5.62;;;;;;;10.16;34.54;100979.01;1774744;79;21735;-81
2021/04/09 10:12:16;;;;;;;11.43;6.12;;;;;;;10.25;33.11;100966.27;1775508;79;21509;-82
2021/04/09 10:15:23;;;;;;;6.87;4.75;;;;;;;10.32;33.45;100966.00;1753622;79;21889;-81
2021/04/09 10:18:29;;;;;;;6.60;4.55;;;;;;;10.49;33.12;100961.50;1752638;79;21868;-82
2021/04/09 10:21:36;;;;;;;9.48;5.33;;;;;;;10.68;32.49;100956.33;1774918;79;21846;-81
2021/04/09 10:24:46;;;;;;;10.60;5.83;;;;;;;10.70;31.87;100965.25;1773258;79;21292;-82
2021/04/09 10:27:52;;;;;;;;;;;;;;;10.51;31.82;100956.74;1776354;80;21316;-82
2021/04/09 10:30:58;;;;;;;7.37;4.95;;;;;;;10.33;33.27;100969.08;1769543;79;20254;-82
2021/04/09 10:34:04;;;;;;;6.70;4.85;;;;;;;10.32;32.49;100958.31;1777405;79;21762;-82
2021/04/09 10:37:09;;;;;;;8.90;4.95;;;;;;;10.38;31.36;100959.89;1777243;79;21861;-82
2021/04/09 10:40:16;;;;;;;7.00;4.75;;;;;;;10.47;30.23;100942.52;1703340;82;21177;-82
2021/04/09 10:43:39;;;;;;;7.08;4.60;;;;;;;10.62;30.97;100950.14;1717326;81;21331;-82
2021/04/09 10:46:48;;;;;;;7.80;4.28;;;;;;;10.87;31.82;100953.39;1719750;81;21295;-82
2021/04/09 10:49:56;;;;;;;8.43;4.33;;;;;;;11.13;31.63;100960.17;1775483;79;21173;-82
2021/04/09 10:53:01;;;;;;;9.05;4.80;;;;;;;11.14;30.72;100952.30;1777238;79;21347;-82
2021/04/09 10:56:14;;;;;;;7.10;4.10;;;;;;;11.06;30.46;100952.80;1776376;79;21783;-82
2021/04/09 10:59:20;;;;;;;6.08;4.20;;;;;;;10.93;30.30;100950.51;1777530;79;21193;-82
2021/04/09 11:02:33;;;;;;;10.75;5.33;;;;;;;10.79;30.10;100947.86;1772011;79;21294;-82
2021/04/09 11:05:38;;;;;;;9.28;4.22;;;;;;;10.72;30.93;100941.31;1757667;79;21302;-82
2021/04/09 11:08:46;;;;;;;10.70;4.30;;;;;;;10.73;31.17;100948.01;1778195;79;21996;-82
2021/04/09 11:11:52;;;;;;;6.78;4.20;;;;;;;10.59;32.07;100946.38;1774587;79;21399;-82
2021/04/09 11:15:19;;;;;;;10.30;4.35;;;;;;;10.54;32.86;100943.23;1776372;80;21288;-82
2021/04/09 11:18:27;;;;;;;7.83;3.98;;;;;;;10.56;34.33;100946.17;1774845;79;21781;-82
2021/04/09 11:21:56;;;;;;;7.70;4.58;;;;;;;10.68;33.19;100938.55;1776153;79;21284;-81
2021/04/09 11:25:11;;;;;;;9.03;4.25;;;;;;;10.81;32.04;100936.23;1693679;81;21275;-81
2021/04/09 11:28:31;;;;;;;8.83;5.00;;;;;;;10.90;31.57;100937.98;1720556;82;21296;-81
2021/04/09 11:31:38;;;;;;;5.62;3.77;;;;;;;10.91;31.32;100941.06;1719987;81;21849;-81
2021/04/09 11:34:48;;;;;;;8.40;4.75;;;;;;;10.92;30.57;100934.59;1776992;79;21615;-80
2021/04/09 11:37:59;;;;;;;9.17;5.67;;;;;;;10.90;31.55;100936.62;1774104;79;21174;-81
2021/04/09 11:41:04;;;;;;;8.95;4.90;;;;;;;10.79;31.47;100941.02;1754023;80;21638;-80
2021/04/09 11:44:11;;;;;;;8.18;5.08;;;;;;;10.63;31.97;100934.06;1776747;80;21339;-81
2021/04/09 11:47:27;;;;;;;9.98;5.15;;;;;;;10.49;31.92;100928.67;1769394;79;22182;-81
2021/04/09 11:50:31;;;;;;;6.17;4.10;;;;;;;10.40;32.87;100925.56;1767722;79;21829;-80
2021/04/09 11:53:37;;;;;;;6.75;3.77;;;;;;;10.41;31.87;100924.03;1771109;80;21273;-80
2021/04/09 11:56:54;;;;;;;10.32;4.95;;;;;;;10.38;30.58;100921.61;1750024;80;21156;-81
2021/04/09 12:00:01;;;;;;;12.20;4.72;;;;;;;10.34;31.59;100910.63;1771084;80;21315;-81
2021/04/09 12:03:14;;;;;;;8.63;5.53;;;;;;;10.38;32.10;100903.83;1773211;80;21283;-81
2021/04/09 12:06:25;;;;;;;7.80;4.10;;;;;;;10.34;31.74;100917.47;1771049;80;21371;-81
2021/04/09 12:09:30;;;;;;;12.68;4.83;;;;;;;10.28;33.59;100925.47;1748815;80;21182;-81
2021/04/09 12:12:36;;;;;;;7.08;3.87;;;;;;;10.06;34.87;100926.27;1727621;81;21219;-80
2021/04/09 12:15:43;;;;;;;9.03;3.77;;;;;;;9.88;34.86;100939.98;1752749;80;21262;-81
2021/04/09 12:18:50;;;;;;;7.30;3.80;;;;;;;9.67;31.86;100947.61;1771989;80;21229;-81
2021/04/09 12:21:56;;;;;;;6.62;3.95;;;;;;;9.47;33.40;100945.02;1748918;80;21162;-80
2021/04/09 12:25:03;;;;;;;6.37;3.70;;;;;;;9.31;31.98;100922.97;1771042;80;21304;-80
2021/04/09 12:28:09;;;;;;;7.65;3.05;;;;;;;9.18;32.02;100915.68;1766152;80;21182;-81
2021/04/09 12:31:14;;;;;;;7.40;3.52;;;;;;;9.08;33.87;100911.64;1768413;80;21300;-81
2021/04/09 12:34:20;;;;;;;7.17;3.85;;;;;;;8.94;34.61;100906.18;1770933;80;21743;-81
2021/04/09 12:37:25;;;;;;;4.58;3.35;;;;;;;8.91;34.58;100907.84;1748164;80;21878;-81
2021/04/09 12:40:30;;;;;;;13.83;3.85;;;;;;;8.94;34.37;100901.23;1771079;80;21296;-81
2021/04/09 12:43:37;;;;;;;9.05;4.62;;;;;;;9.03;34.82;100903.02;1776285;79;21273;-81
2021/04/09 12:46:42;;;;;;;6.58;4.10;;;;;;;9.16;34.32;100904.03;1773575;79;21257;-81
2021/04/09 12:49:49;;;;;;;8.30;4.47;;;;;;;9.31;33.37;100902.50;1756414;79;21213;-81
2021/04/09 12:52:55;;;;;;;9.25;4.87;;;;;;;9.41;33.41;100891.03;1773297;79;21282;-81
2021/04/09 12:56:02;;;;;;;12.05;5.62;;;;;;;9.47;33.43;100902.69;1776656;79;21308;-81
2021/04/09 12:59:08;;;;;;;7.87;4.17;;;;;;;9.43;33.64;100888.13;1773084;79;21707;-81
2021/04/09 13:02:14;;;;;;;7.72;4.75;;;;;;;9.39;34.03;100901.23;1776495;79;21312;-81
2021/04/09 13:05:20;;;;;;;10.13;5.33;;;;;;;9.40;34.10;100896.62;1773146;79;21166;-81
2021/04/09 13:08:25;;;;;;;6.78;4.83;;;;;;;9.44;33.42;100894.80;1776156;79;21860;-81
2021/04/09 13:11:29;;;;;;;6.00;4.10;;;;;;;9.49;34.07;100892.97;1774407;79;21281;-81
2021/04/09 13:14:36;;;;;;;8.15;4.47;;;;;;;9.57;33.82;100890.83;1707728;81;21188;-80
2021/04/09 13:17:43;;;;;;;9.78;4.50;;;;;;;9.66;34.12;100894.00;1722219;82;21180;-81
2021/04/09 13:20:49;;;;;;;8.93;4.42;;;;;;;9.73;32.41;100890.46;1781687;79;21360;-81
2021/04/09 13:23:58;;;;;;;11.33;6.05;;;;;;;9.81;32.54;100881.49;1728697;83;21272;-81
2021/04/09 13:27:04;;;;;;;10.15;5.20;;;;;;;9.91;31.88;100889.59;1724305;82;21358;-81
2021/04/09 13:30:11;;;;;;;11.83;5.25;;;;;;;9.97;31.71;100883.49;1772625;81;21269;-81
2021/04/09 13:33:16;;;;;;;7.95;4.53;;;;;;;9.99;31.82;100893.27;1749765;81;21292;-81
2021/04/09 13:36:21;;;;;;;9.30;4.53;;;;;;;9.99;32.17;100894.63;1773568;81;21203;-81
2021/04/09 13:39:26;;;;;;;14.05;5.22;;;;;;;9.98;31.69;100907.95;1772536;80;21984;-81
2021/04/09 13:42:33;;;;;;;6.28;3.83;;;;;;;9.90;31.41;100898.83;1771413;80;21170;-81
2021/04/09 13:45:40;;;;;;;10.03;5.33;;;;;;;9.79;31.43;100906.77;1714283;82;21193;-81
2021/04/09 13:48:45;;;;;;;8.85;4.08;;;;;;;9.68;31.46;100908.34;1720852;83;21331;-81
2021/04/09 13:51:50;;;;;;;7.15;3.90;;;;;;;9.62;31.88;100913.08;1737550;82;21181;-81
2021/04/09 13:54:51;;;;;;;8.65;5.17;;;;;;;9.57;32.30;100908.59;1725047;83;21327;-81
2021/04/09 13:57:56;;;;;;;12.98;5.30;;;;;;;9.53;31.86;100903.08;1684791;84;21791;-81
2021/04/09 14:01:02;;;;;;;11.35;4.25;;;;;;;9.53;32.09;100907.17;1714673;83;21690;-81
2021/04/09 14:04:08;;;;;;;12.20;5.03;;;;;;;9.49;31.80;100910.72;1700972;84;21838;-81
2021/04/09 14:07:14;;;;;;;13.00;6.58;;;;;;;9.44;32.19;100904.35;1681270;84;21858;-81
2021/04/09 14:10:20;;;;;;;12.98;4.50;;;;;;;9.41;32.57;100911.98;1679227;84;21199;-81
2021/04/09 14:13:27;;;;;;;8.75;4.78;;;;;;;9.34;33.13;100911.75;1701261;84;21359;-81
2021/04/09 14:16:34;;;;;;;17.50;4.85;;;;;;;9.26;33.85;100908.92;1701188;84;21826;-81
2021/04/09 14:19:39;;;;;;;9.03;5.12;;;;;;;9.18;34.82;100917.05;1664228;84;21670;-81
2021/04/09 14:22:43;;;;;;;12.33;4.60;;;;;;;9.09;35.16;100909.77;1701283;84;21323;-80
2021/04/09 14:25:50;;;;;;;8.58;5.45;;;;;;;9.02;34.98;100914.95;1701156;84;21320;-81
2021/04/09 14:28:55;;;;;;;10.88;5.55;;;;;;;8.96;35.35;100912.33;1701340;84;21320;-81
2021/04/09 14:32:02;;;;;;;12.30;4.60;;;;;;;8.94;35.68;100914.87;1699779;83;21212;-80